createdAt,value
2023-01-28T00:00:00.785Z,3.33
2023-01-28T00:02:33.117Z,2.93
2023-01-28T00:05:04.905Z,4.87
2023-01-28T00:07:36.216Z,3.17
2023-01-28T00:10:08.178Z,5.27
2023-01-28T00:12:39.431Z,3.43
2023-01-28T00:15:11.700Z,3.27
2023-01-28T00:17:43.246Z,3.83
2023-01-28T00:20:14.757Z,3.63
2023-01-28T00:22:51.834Z,5.90
2023-01-28T00:25:23.618Z,4.90
2023-01-28T00:27:55.496Z,4.97
2023-01-28T00:30:26.825Z,2.77
2023-01-28T00:32:58.154Z,2.33
2023-01-28T00:35:30.003Z,4.03
2023-01-28T00:38:03.394Z,8.17
2023-01-28T00:40:35.266Z,2.13
2023-01-28T00:43:06.509Z,5.50
2023-01-28T00:45:38.942Z,3.53
2023-01-28T00:48:10.219Z,2.90
2023-01-28T00:50:41.575Z,3.37
2023-01-28T00:53:12.812Z,6.70
2023-01-28T00:55:44.198Z,3.67
2023-01-28T00:58:15.500Z,4.17
2023-01-28T01:00:47.054Z,3.80
2023-01-28T01:03:19.139Z,1.97
2023-01-28T01:05:50.416Z,2.87
2023-01-28T01:08:34.993Z,2.33
2023-01-28T01:11:07.997Z,2.53
2023-01-28T01:13:39.362Z,4.10
2023-01-28T01:16:13.151Z,3.70
2023-01-28T01:18:44.759Z,2.83
2023-01-28T01:21:18.595Z,2.90
2023-01-28T01:23:49.912Z,4.50
2023-01-28T01:26:21.647Z,2.43
2023-01-28T01:28:53.545Z,2.03
2023-01-28T01:31:25.003Z,6.53
2023-01-28T01:33:56.336Z,2.90
2023-01-28T01:36:27.671Z,4.37
2023-01-28T01:38:59.065Z,4.63
2023-01-28T01:41:32.772Z,6.17
2023-01-28T01:44:06.182Z,4.13
2023-01-28T01:46:45.965Z,4.17
2023-01-28T01:49:26.311Z,6.40
2023-01-28T01:52:03.437Z,3.77
2023-01-28T01:54:36.978Z,4.07
2023-01-28T01:57:13.858Z,5.67
2023-01-28T01:59:45.637Z,2.70
2023-01-28T02:02:17.581Z,6.47
2023-01-28T02:04:48.939Z,3.10
2023-01-28T02:07:20.592Z,2.37
2023-01-28T02:09:51.877Z,3.27
2023-01-28T02:12:29.010Z,4.63
2023-01-28T02:15:05.049Z,4.60
2023-01-28T02:17:37.683Z,2.35
2023-01-28T02:20:19.318Z,2.50
2023-01-28T02:23:20.564Z,5.43
2023-01-28T02:26:03.940Z,4.03
2023-01-28T02:28:43.703Z,2.13
2023-01-28T02:31:29.963Z,2.27
2023-01-28T02:34:31.536Z,3.03
2023-01-28T02:37:14.307Z,2.40
2023-01-28T02:39:49.454Z,3.10
2023-01-28T02:42:29.201Z,3.40
2023-01-28T02:45:00.720Z,2.90
2023-01-28T02:47:50.487Z,4.13
2023-01-28T02:50:21.810Z,2.40
2023-01-28T02:53:15.046Z,4.90
2023-01-28T02:56:11.924Z,3.00
2023-01-28T02:59:26.578Z,2.97
2023-01-28T03:02:15.055Z,2.17
2023-01-28T03:04:51.358Z,3.80
2023-01-28T03:07:26.880Z,2.38
2023-01-28T03:10:04.126Z,3.08
2023-01-28T03:12:58.732Z,2.77
2023-01-28T03:15:55.461Z,4.40
2023-01-28T03:18:59.901Z,2.70
2023-01-28T03:21:55.038Z,2.10
2023-01-28T03:24:50.147Z,3.17
2023-01-28T03:27:44.599Z,2.83
2023-01-28T03:30:44.282Z,2.27
2023-01-28T03:33:35.421Z,3.07
2023-01-28T03:36:26.685Z,3.67
2023-01-28T03:38:58.627Z,4.30
2023-01-28T03:41:29.886Z,2.10
2023-01-28T03:44:19.828Z,3.47
2023-01-28T03:46:51.178Z,1.90
2023-01-28T03:49:22.594Z,1.63
2023-01-28T03:51:53.855Z,2.17
2023-01-28T03:54:25.106Z,2.37
2023-01-28T03:56:56.379Z,2.27
2023-01-28T03:59:27.675Z,5.90
2023-01-28T04:01:59.028Z,2.53
2023-01-28T04:04:32.439Z,1.83
2023-01-28T04:07:03.707Z,3.40
2023-01-28T04:09:35.848Z,1.73
2023-01-28T04:12:07.475Z,2.67
2023-01-28T04:14:40.071Z,3.20
2023-01-28T04:17:11.501Z,1.43
2023-01-28T04:19:42.778Z,3.60
2023-01-28T04:22:14.035Z,2.03
2023-01-28T04:24:45.412Z,2.17
2023-01-28T04:27:16.721Z,3.07
2023-01-28T04:29:47.990Z,2.73
2023-01-28T04:32:19.247Z,3.47
2023-01-28T04:34:50.537Z,2.17
2023-01-28T04:37:21.809Z,2.27
2023-01-28T04:39:53.096Z,2.90
2023-01-28T04:42:24.440Z,2.87
2023-01-28T04:44:55.717Z,2.67
2023-01-28T04:47:27.149Z,1.67
2023-01-28T04:49:58.424Z,1.63
2023-01-28T04:52:29.685Z,3.77
2023-01-28T04:55:01.153Z,4.83
2023-01-28T04:57:32.433Z,2.17
2023-01-28T05:00:05.590Z,2.57
2023-01-28T05:02:36.871Z,4.80
2023-01-28T05:05:11.093Z,1.87
2023-01-28T05:07:42.352Z,3.73
2023-01-28T05:10:13.624Z,4.40
2023-01-28T05:12:45.456Z,2.00
2023-01-28T05:15:18.049Z,2.07
2023-01-28T05:17:49.388Z,2.40
2023-01-28T05:20:20.648Z,2.13
2023-01-28T05:22:52.394Z,4.37
2023-01-28T05:25:23.660Z,3.47
2023-01-28T05:27:54.975Z,2.57
2023-01-28T05:30:26.451Z,3.77
2023-01-28T05:32:57.952Z,2.33
2023-01-28T05:35:29.358Z,1.53
2023-01-28T05:38:00.676Z,3.70
2023-01-28T05:40:31.947Z,4.37
2023-01-28T05:43:03.228Z,1.60
2023-01-28T05:45:34.542Z,2.23
2023-01-28T05:48:06.193Z,2.43
2023-01-28T05:50:37.628Z,5.43
2023-01-28T05:53:09.512Z,2.30
2023-01-28T05:55:40.825Z,3.33
2023-01-28T05:58:12.090Z,7.93
2023-01-28T06:00:43.447Z,5.63
2023-01-28T06:03:14.889Z,6.77
2023-01-28T06:05:46.246Z,4.03
2023-01-28T06:08:17.533Z,6.30
2023-01-28T06:10:48.814Z,8.73
2023-01-28T06:13:20.063Z,5.40
2023-01-28T06:15:51.490Z,4.03
2023-01-28T06:18:22.888Z,3.23
2023-01-28T06:20:54.529Z,4.93
2023-01-28T06:23:26.061Z,7.47
2023-01-28T06:25:57.514Z,5.30
2023-01-28T06:28:29.016Z,4.23
2023-01-28T06:31:00.300Z,3.10
2023-01-28T06:33:32.346Z,4.17
2023-01-28T06:36:04.455Z,2.50
2023-01-28T06:38:35.718Z,3.90
2023-01-28T06:41:06.978Z,4.50
2023-01-28T06:43:38.406Z,2.00
2023-01-28T06:46:09.772Z,2.97
2023-01-28T06:48:41.113Z,4.43
2023-01-28T06:51:12.408Z,2.57
2023-01-28T06:53:45.929Z,3.43
2023-01-28T06:56:17.327Z,2.63
2023-01-28T06:58:48.687Z,6.27
2023-01-28T07:01:19.965Z,2.83
2023-01-28T07:03:51.245Z,2.93
2023-01-28T07:06:22.758Z,3.50
2023-01-28T07:08:54.001Z,4.77
2023-01-28T07:11:25.465Z,3.73
2023-01-28T07:13:56.870Z,4.83
2023-01-28T07:16:28.156Z,1.70
2023-01-28T07:18:59.414Z,2.67
2023-01-28T07:21:30.675Z,4.77
2023-01-28T07:24:02.085Z,4.57
2023-01-28T07:26:33.455Z,2.67
2023-01-28T07:29:04.844Z,2.73
2023-01-28T07:31:36.238Z,4.53
2023-01-28T07:34:09.470Z,5.50
2023-01-28T07:36:40.779Z,10.27
2023-01-28T07:39:12.105Z,10.03
2023-01-28T07:41:43.375Z,7.77
2023-01-28T07:44:14.668Z,7.60
2023-01-28T07:46:45.940Z,7.70
2023-01-28T07:49:17.248Z,7.73
2023-01-28T07:51:50.483Z,7.63
2023-01-28T07:54:21.897Z,7.00
2023-01-28T07:56:53.216Z,9.77
2023-01-28T07:59:24.595Z,26.30
2023-01-28T08:01:55.886Z,22.60
2023-01-28T08:04:27.352Z,20.40
2023-01-28T08:06:58.747Z,13.50
2023-01-28T08:09:30.073Z,10.20
2023-01-28T08:12:02.596Z,15.20
2023-01-28T08:14:33.852Z,10.43
2023-01-28T08:17:05.134Z,14.67
2023-01-28T08:19:36.465Z,11.43
2023-01-28T08:22:07.736Z,11.80
2023-01-28T08:24:39.032Z,12.03
2023-01-28T08:27:10.307Z,14.37
2023-01-28T08:29:41.580Z,10.23
2023-01-28T08:32:12.841Z,7.10
2023-01-28T08:34:44.120Z,9.37
2023-01-28T08:37:15.376Z,12.87
2023-01-28T08:39:46.688Z,8.23
2023-01-28T08:42:18.067Z,8.00
2023-01-28T08:44:49.316Z,8.77
2023-01-28T08:47:20.625Z,7.73
2023-01-28T08:49:51.920Z,7.90
2023-01-28T08:52:23.185Z,7.20
2023-01-28T08:54:54.589Z,7.67
2023-01-28T08:57:25.925Z,7.57
2023-01-28T08:59:57.262Z,9.20
2023-01-28T09:02:32.024Z,8.00
2023-01-28T09:05:04.293Z,5.97
2023-01-28T09:07:36.005Z,8.23
2023-01-28T09:10:09.017Z,8.60
2023-01-28T09:12:40.298Z,4.67
2023-01-28T09:15:12.153Z,6.50
2023-01-28T09:17:43.635Z,8.30
2023-01-28T09:20:15.377Z,6.33
2023-01-28T09:22:46.746Z,7.60
2023-01-28T09:25:18.175Z,6.13
2023-01-28T09:27:49.430Z,7.07
2023-01-28T09:30:21.036Z,7.30
2023-01-28T09:32:54.120Z,10.63
2023-01-28T09:35:25.478Z,10.43
2023-01-28T09:37:58.478Z,10.00
2023-01-28T09:40:37.371Z,12.07
2023-01-28T09:43:14.729Z,8.97
2023-01-28T09:45:48.787Z,13.27
2023-01-28T09:48:24.314Z,11.97
2023-01-28T09:50:55.705Z,9.18
2023-01-28T09:53:38.976Z,10.03
2023-01-28T09:56:20.665Z,12.73
2023-01-28T09:58:52.434Z,8.83
2023-01-28T10:01:46.322Z,10.83
2023-01-28T10:04:17.651Z,12.77
2023-01-28T10:07:01.873Z,10.00
2023-01-28T10:09:53.560Z,9.60
2023-01-28T10:12:42.273Z,7.70
2023-01-28T10:15:40.942Z,8.33
2023-01-28T10:18:17.521Z,8.57
2023-01-28T10:20:55.253Z,7.07
2023-01-28T10:23:38.788Z,7.20
2023-01-28T10:26:21.566Z,6.67
2023-01-28T10:28:57.628Z,5.17
2023-01-28T10:31:34.902Z,8.07
2023-01-28T10:34:06.224Z,6.40
2023-01-28T10:36:37.704Z,5.60
2023-01-28T10:39:13.873Z,8.67
2023-01-28T10:41:56.608Z,8.98
2023-01-28T10:44:38.034Z,7.93
2023-01-28T10:47:20.616Z,10.23
2023-01-28T10:49:56.840Z,9.80
2023-01-28T10:52:28.330Z,5.90
2023-01-28T10:55:02.317Z,6.23
2023-01-28T10:57:34.745Z,11.00
2023-01-28T11:00:31.692Z,5.27
2023-01-28T11:03:03.142Z,6.07
2023-01-28T11:05:34.471Z,6.00
2023-01-28T11:08:17.435Z,8.07
2023-01-28T11:10:49.351Z,7.43
2023-01-28T11:13:29.559Z,5.90
2023-01-28T11:16:04.878Z,7.00
2023-01-28T11:18:40.788Z,6.93
2023-01-28T11:21:33.029Z,6.93
2023-01-28T11:24:16.507Z,5.40
2023-01-28T11:26:54.342Z,7.07
2023-01-28T11:29:33.239Z,6.50
2023-01-28T11:32:04.731Z,6.53
2023-01-28T11:34:36.064Z,4.57
2023-01-28T11:37:16.188Z,6.50
2023-01-28T11:39:47.578Z,5.73
2023-01-28T11:42:21.103Z,8.47
2023-01-28T11:44:53.729Z,5.77
2023-01-28T11:47:31.006Z,8.03
2023-01-28T11:50:12.541Z,6.07
2023-01-28T11:53:16.775Z,8.40
2023-01-28T11:56:14.714Z,8.03
2023-01-28T11:59:12.027Z,7.83
2023-01-28T12:04:58.884Z,6.00
2023-01-28T12:07:52.494Z,6.70
2023-01-28T12:10:43.993Z,7.73
2023-01-28T12:13:29.177Z,7.80
2023-01-28T12:16:18.900Z,8.77
2023-01-28T12:19:11.343Z,9.20
2023-01-28T12:22:08.421Z,12.00
2023-01-28T12:25:17.411Z,7.93
2023-01-28T12:28:14.710Z,9.10
2023-01-28T12:34:23.558Z,11.77
2023-01-28T12:37:22.723Z,9.87
2023-01-28T12:40:19.197Z,9.00
2023-01-28T12:43:15.945Z,9.02
2023-01-28T12:46:11.803Z,11.52
2023-01-28T12:48:49.942Z,9.13
2023-01-28T12:51:24.855Z,9.87
2023-01-28T12:54:12.432Z,10.27
2023-01-28T12:56:48.961Z,10.10
2023-01-28T12:59:58.860Z,13.87
2023-01-28T13:02:36.015Z,12.30
2023-01-28T13:05:15.317Z,10.57
2023-01-28T13:08:03.625Z,12.30
2023-01-28T13:10:40.329Z,13.00
2023-01-28T13:13:27.101Z,16.53
2023-01-28T13:18:40.111Z,14.77
2023-01-28T13:21:39.948Z,15.50
2023-01-28T13:24:15.142Z,12.40
2023-01-28T13:26:55.816Z,15.17
2023-01-28T13:29:33.997Z,17.57
2023-01-28T13:32:30.437Z,14.33
2023-01-28T13:35:07.930Z,15.57
2023-01-28T13:37:43.968Z,15.87
2023-01-28T13:40:15.260Z,18.55
2023-01-28T13:42:57.938Z,19.00
2023-01-28T13:45:30.371Z,16.70
2023-01-28T13:48:32.749Z,18.00
2023-01-28T13:51:09.835Z,15.63
2023-01-28T13:53:50.762Z,16.33
2023-01-28T13:56:26.656Z,17.23
2023-01-28T13:59:13.794Z,18.30
2023-01-28T14:02:07.078Z,20.00
2023-01-28T14:04:55.066Z,15.10
2023-01-28T14:07:54.382Z,16.63
2023-01-28T14:10:38.531Z,19.03
2023-01-28T14:13:33.714Z,15.43
2023-01-28T14:16:31.838Z,16.03
2023-01-28T14:19:03.673Z,14.67
2023-01-28T14:21:35.973Z,15.83
2023-01-28T14:24:17.418Z,13.63
2023-01-28T14:27:09.064Z,13.40
2023-01-28T14:29:46.085Z,16.93
2023-01-28T14:32:21.816Z,16.80
2023-01-28T14:34:53.906Z,15.00
2023-01-28T14:37:30.455Z,16.90
2023-01-28T14:40:06.160Z,18.60
2023-01-28T14:42:40.072Z,17.42
2023-01-28T14:45:17.214Z,17.77
2023-01-28T14:48:21.959Z,17.47
2023-01-28T14:51:10.739Z,15.90
2023-01-28T14:53:44.902Z,17.03
2023-01-28T14:56:49.039Z,19.17
2023-01-28T14:59:28.096Z,16.27
2023-01-28T15:01:59.889Z,16.30
2023-01-28T15:04:33.860Z,18.47
2023-01-28T15:07:23.033Z,18.57
2023-01-28T15:10:06.535Z,20.30
2023-01-28T15:12:40.933Z,17.80
2023-01-28T15:15:19.929Z,19.07
2023-01-28T15:17:52.131Z,19.30
2023-01-28T15:20:24.608Z,14.93
2023-01-28T15:22:56.077Z,16.20
2023-01-28T15:25:29.220Z,18.10
2023-01-28T15:28:01.970Z,16.50
2023-01-28T15:30:33.491Z,15.97
2023-01-28T15:33:14.384Z,16.23
2023-01-28T15:36:05.451Z,18.00
2023-01-28T15:38:36.777Z,12.50
2023-01-28T15:41:08.320Z,18.50
2023-01-28T15:43:39.836Z,19.33
2023-01-28T15:46:13.214Z,19.37
2023-01-28T15:48:51.523Z,23.30
2023-01-28T15:51:28.386Z,18.73
2023-01-28T15:54:05.178Z,18.07
2023-01-28T15:56:36.787Z,16.13
2023-01-28T15:59:31.143Z,17.17
2023-01-28T16:02:18.480Z,19.17
2023-01-28T16:05:04.782Z,18.53
2023-01-28T16:07:44.939Z,17.10
2023-01-28T16:10:24.847Z,20.03
2023-01-28T16:13:21.660Z,19.13
2023-01-28T16:15:55.046Z,18.80
2023-01-28T16:18:40.328Z,20.20
2023-01-28T16:21:18.526Z,19.07
2023-01-28T16:23:59.808Z,18.00
2023-01-28T16:26:34.206Z,21.73
2023-01-28T16:29:16.838Z,20.23
2023-01-28T16:31:48.191Z,17.47
2023-01-28T16:34:19.662Z,17.33
2023-01-28T16:36:50.940Z,17.77
2023-01-28T16:39:22.407Z,20.10
2023-01-28T16:41:53.936Z,18.73
2023-01-28T16:44:25.290Z,22.10
2023-01-28T16:46:56.666Z,19.93
2023-01-28T16:49:28.087Z,19.90
2023-01-28T16:52:00.651Z,20.03
2023-01-28T16:54:34.043Z,21.40
2023-01-28T16:57:05.570Z,21.53
2023-01-28T16:59:36.846Z,24.73
2023-01-28T17:02:17.810Z,26.27
2023-01-28T17:04:49.503Z,20.13
2023-01-28T17:07:20.830Z,21.57
2023-01-28T17:09:52.200Z,21.40
2023-01-28T17:12:23.578Z,19.10
2023-01-28T17:14:54.849Z,19.03
2023-01-28T17:17:26.174Z,24.20
2023-01-28T17:19:57.471Z,26.57
2023-01-28T17:22:28.867Z,22.63
2023-01-28T17:25:00.200Z,29.50
2023-01-28T17:27:31.918Z,24.67
2023-01-28T17:30:04.315Z,25.47
2023-01-28T17:32:35.655Z,25.37
2023-01-28T17:35:07.278Z,18.37
2023-01-28T17:37:38.587Z,26.07
2023-01-28T17:40:12.475Z,26.43
2023-01-28T17:42:43.788Z,25.00
2023-01-28T17:45:15.626Z,20.90
2023-01-28T17:47:47.782Z,22.63
2023-01-28T17:50:19.154Z,22.23
2023-01-28T17:52:57.626Z,21.53
2023-01-28T17:55:29.547Z,23.73
2023-01-28T17:58:00.957Z,22.67
2023-01-28T18:00:32.631Z,23.03
2023-01-28T18:03:03.896Z,21.60
2023-01-28T18:05:35.169Z,20.23
2023-01-28T18:08:07.529Z,20.67
2023-01-28T18:10:43.299Z,26.60
2023-01-28T18:13:14.649Z,21.42
2023-01-28T18:15:45.994Z,22.87
2023-01-28T18:18:17.237Z,19.97
2023-01-28T18:21:03.490Z,21.97
2023-01-28T18:23:34.762Z,22.15
2023-01-28T18:26:07.250Z,20.13
2023-01-28T18:28:38.727Z,22.77
2023-01-28T18:31:10.098Z,23.87
2023-01-28T18:33:41.805Z,21.40
2023-01-28T18:36:13.621Z,23.20
2023-01-28T18:38:45.807Z,20.23
2023-01-28T18:41:17.087Z,21.53
2023-01-28T18:43:48.444Z,20.63
2023-01-28T18:46:19.787Z,21.00
2023-01-28T18:48:51.783Z,22.83
2023-01-28T18:51:30.947Z,20.63
2023-01-28T18:54:04.036Z,20.10
2023-01-28T18:56:35.347Z,26.17
2023-01-28T18:59:10.014Z,21.67
2023-01-28T19:01:42.633Z,21.53
2023-01-28T19:04:15.469Z,18.90
2023-01-28T19:06:47.220Z,20.97
2023-01-28T19:09:18.573Z,23.73
2023-01-28T19:11:50.897Z,20.17
2023-01-28T19:14:22.312Z,19.80
2023-01-28T19:16:53.609Z,22.07
2023-01-28T19:19:25.182Z,24.20
2023-01-28T19:21:56.572Z,19.87
2023-01-28T19:24:28.503Z,19.03
2023-01-28T19:26:59.803Z,26.40
2023-01-28T19:29:31.204Z,19.60
2023-01-28T19:32:04.455Z,20.93
2023-01-28T19:34:35.838Z,23.33
2023-01-28T19:37:07.542Z,23.23
2023-01-28T19:39:38.917Z,22.23
2023-01-28T19:42:10.263Z,23.23
2023-01-28T19:44:41.646Z,23.23
2023-01-28T19:47:13.076Z,26.43
2023-01-28T19:49:44.388Z,21.70
2023-01-28T19:52:15.767Z,22.50
2023-01-28T19:54:48.094Z,23.00
2023-01-28T19:57:19.515Z,21.33
2023-01-28T19:59:50.827Z,17.23
2023-01-28T20:02:22.163Z,19.17
2023-01-28T20:05:00.725Z,21.63
2023-01-28T20:07:32.497Z,22.10
2023-01-28T20:10:04.116Z,19.63
2023-01-28T20:12:35.454Z,22.47
2023-01-28T20:15:08.373Z,18.90
2023-01-28T20:17:40.196Z,16.73
2023-01-28T20:20:11.925Z,21.33
2023-01-28T20:22:43.232Z,17.20
2023-01-28T20:25:16.514Z,19.10
2023-01-28T20:27:48.347Z,18.53
2023-01-28T20:30:19.753Z,21.63
2023-01-28T20:32:51.055Z,22.07
2023-01-28T20:35:22.377Z,19.63
2023-01-28T20:37:53.651Z,18.80
2023-01-28T20:40:26.107Z,23.93
2023-01-28T20:42:57.503Z,17.50
2023-01-28T20:45:31.105Z,17.43
2023-01-28T20:48:02.505Z,16.93
2023-01-28T20:50:34.847Z,17.73
2023-01-28T20:53:06.257Z,18.20
2023-01-28T20:55:37.576Z,17.57
2023-01-28T20:58:08.853Z,23.07
2023-01-28T21:00:40.177Z,19.77
2023-01-28T21:03:11.571Z,19.30
2023-01-28T21:05:46.797Z,17.83
2023-01-28T21:08:18.412Z,19.43
2023-01-28T21:10:49.904Z,17.07
2023-01-28T21:13:21.276Z,15.50
2023-01-28T21:15:54.756Z,20.50
2023-01-28T21:18:26.440Z,19.27
2023-01-28T21:21:07.105Z,19.53
2023-01-28T21:23:38.405Z,19.33
2023-01-28T21:26:10.368Z,16.90
2023-01-28T21:28:43.146Z,19.33
2023-01-28T21:31:17.188Z,21.07
2023-01-28T21:33:49.779Z,23.93
2023-01-28T21:36:22.077Z,20.20
2023-01-28T21:38:56.011Z,19.63
2023-01-28T21:41:27.787Z,21.20
2023-01-28T21:43:59.402Z,17.37
2023-01-28T21:46:33.685Z,19.37
2023-01-28T21:49:07.729Z,18.53
2023-01-28T21:51:48.019Z,17.73
2023-01-28T21:54:19.907Z,19.37
2023-01-28T21:56:52.242Z,17.70
2023-01-28T21:59:30.073Z,20.67
2023-01-28T22:02:13.210Z,21.33
2023-01-28T22:04:51.731Z,21.73
2023-01-28T22:07:23.079Z,22.00
2023-01-28T22:09:54.688Z,23.73
2023-01-28T22:12:27.987Z,20.07
2023-01-28T22:15:00.033Z,19.90
2023-01-28T22:17:31.514Z,18.27
2023-01-28T22:20:03.043Z,25.50
2023-01-28T22:22:34.442Z,19.40
2023-01-28T22:25:06.503Z,21.00
2023-01-28T22:27:37.955Z,20.17
2023-01-28T22:30:09.887Z,17.30
2023-01-28T22:32:41.147Z,25.50
2023-01-28T22:35:12.504Z,22.27
2023-01-28T22:37:44.260Z,24.40
2023-01-28T22:40:15.954Z,21.43
2023-01-28T22:42:47.569Z,30.13
2023-01-28T22:45:18.857Z,20.33
2023-01-28T22:47:50.247Z,19.27
2023-01-28T22:50:21.706Z,18.50
2023-01-28T22:52:53.063Z,25.47
2023-01-28T22:55:24.421Z,21.43
2023-01-28T22:57:55.798Z,24.03
2023-01-28T23:00:28.099Z,24.47
2023-01-28T23:03:00.422Z,22.73
2023-01-28T23:05:31.873Z,23.57
2023-01-28T23:08:12.163Z,26.50
2023-01-28T23:10:50.193Z,24.17
2023-01-28T23:13:21.681Z,20.10
2023-01-28T23:16:12.348Z,23.50
2023-01-28T23:19:02.583Z,21.57
2023-01-28T23:21:54.642Z,24.87
2023-01-28T23:24:27.953Z,23.93
2023-01-28T23:27:00.577Z,25.83
2023-01-28T23:29:32.163Z,25.13
2023-01-28T23:32:07.483Z,22.60
2023-01-28T23:34:46.217Z,27.95
2023-01-28T23:37:17.729Z,25.87
2023-01-28T23:39:49.013Z,23.53
2023-01-28T23:42:21.102Z,24.60
2023-01-28T23:44:52.421Z,24.10
2023-01-28T23:47:23.793Z,25.70
2023-01-28T23:49:55.116Z,27.87
2023-01-28T23:52:27.481Z,21.13
2023-01-28T23:54:58.770Z,23.77
2023-01-28T23:57:30.237Z,23.70
